Time;durP1;ratioP1;P1;durP2;ratioP2;P2;SDS_P1;SDS_P2;PMS_P1;PMS_P2;Temp;Humidity;BMP_temperature;BMP_pressure;BME280_temperature;BME280_humidity;BME280_pressure;Samples;Min_cycle;Max_cycle;Signal;HPM_P1;HPM_P2
2023/07/30 00:02:20;;;;;;;18.05;6.47;;;;;;;;;;5015529;28;20548;-62
2023/07/30 00:05:05;;;;;;;21.90;7.53;;;;;;;;;;5018022;28;20053;-62
2023/07/30 00:07:49;;;;;;;15.43;7.28;;;;;;;;;;5020801;28;20129;-62
2023/07/30 00:10:36;;;;;;;15.77;7.05;;;;;;;;;;5015574;28;20049;-62
2023/07/30 00:13:21;;;;;;;16.15;7.00;;;;;;;;;;5001756;28;20056;-62
2023/07/30 00:16:05;;;;;;;21.27;8.20;;;;;;;;;;5018133;28;20388;-62
2023/07/30 00:18:50;;;;;;;18.30;7.88;;;;;;;;;;4999271;28;20049;-62
2023/07/30 00:21:35;;;;;;;29.17;7.95;;;;;;;;;;5015527;28;20754;-62
2023/07/30 00:24:20;;;;;;;19.05;7.53;;;;;;;;;;5016887;28;20120;-62
2023/07/30 00:27:05;;;;;;;19.27;7.60;;;;;;;;;;5018261;28;20066;-62
2023/07/30 00:29:50;;;;;;;21.23;7.70;;;;;;;;;;5016628;28;20067;-62
2023/07/30 00:32:35;;;;;;;16.58;7.15;;;;;;;;;;5016720;28;20124;-62
2023/07/30 00:35:20;;;;;;;19.52;8.20;;;;;;;;;;5019744;28;20117;-61
2023/07/30 00:38:05;;;;;;;15.30;5.97;;;;;;;;;;5021233;28;20053;-62
2023/07/30 00:40:50;;;;;;;17.55;7.15;;;;;;;;;;5019795;28;20042;-62
2023/07/30 00:43:35;;;;;;;19.23;7.28;;;;;;;;;;5021900;28;20049;-62
2023/07/30 00:46:20;;;;;;;17.13;8.55;;;;;;;;;;5023548;28;20041;-62
2023/07/30 00:49:05;;;;;;;20.02;8.13;;;;;;;;;;5011508;28;20053;-62
2023/07/30 00:51:49;;;;;;;14.00;6.35;;;;;;;;;;5019996;28;20786;-62
2023/07/30 00:54:34;;;;;;;17.08;6.57;;;;;;;;;;5020043;28;20038;-62
2023/07/30 00:57:20;;;;;;;17.10;7.05;;;;;;;;;;5020640;28;20049;-62
2023/07/30 01:00:07;;;;;;;23.45;8.13;;;;;;;;;;5021570;28;20116;-62
2023/07/30 01:02:52;;;;;;;16.50;6.22;;;;;;;;;;5017092;28;20737;-61
2023/07/30 01:05:37;;;;;;;22.88;8.52;;;;;;;;;;5010973;28;20042;-62
2023/07/30 01:08:21;;;;;;;23.02;8.98;;;;;;;;;;5011406;28;20042;-63
2023/07/30 01:11:08;;;;;;;16.30;7.15;;;;;;;;;;5001321;28;20050;-63
2023/07/30 01:13:53;;;;;;;26.38;8.65;;;;;;;;;;5018679;28;20038;-62
2023/07/30 01:16:38;;;;;;;23.48;7.47;;;;;;;;;;5016823;28;20124;-62
2023/07/30 01:19:23;;;;;;;20.42;7.72;;;;;;;;;;5001319;28;20743;-62
2023/07/30 01:22:08;;;;;;;25.52;7.65;;;;;;;;;;5019860;28;20107;-62
2023/07/30 01:24:53;;;;;;;18.35;7.78;;;;;;;;;;5014375;28;20353;-62
2023/07/30 01:27:41;;;;;;;18.60;7.25;;;;;;;;;;5018389;28;20132;-62
2023/07/30 01:30:31;;;;;;;17.88;7.60;;;;;;;;;;5020508;28;20475;-62
2023/07/30 01:33:15;;;;;;;21.83;7.40;;;;;;;;;;5023273;28;20053;-63
2023/07/30 01:36:00;;;;;;;17.75;6.65;;;;;;;;;;5009078;28;20124;-62
2023/07/30 01:38:45;;;;;;;17.70;7.90;;;;;;;;;;5005404;28;20136;-62
2023/07/30 01:41:30;;;;;;;12.15;6.93;;;;;;;;;;5009059;28;20088;-61
2023/07/30 01:44:15;;;;;;;20.98;7.13;;;;;;;;;;5021223;28;20136;-62
2023/07/30 01:46:59;;;;;;;23.05;8.02;;;;;;;;;;5001203;28;20049;-62
2023/07/30 01:49:44;;;;;;;19.25;7.03;;;;;;;;;;5015685;28;20076;-62
2023/07/30 01:52:29;;;;;;;18.35;7.30;;;;;;;;;;5019198;28;20045;-63
2023/07/30 01:55:14;;;;;;;25.08;7.53;;;;;;;;;;5019305;28;20049;-62
2023/07/30 01:57:59;;;;;;;19.70;6.82;;;;;;;;;;5021690;28;20468;-62
2023/07/30 02:00:44;;;;;;;25.67;6.82;;;;;;;;;;5022334;28;20132;-62
2023/07/30 02:03:29;;;;;;;17.33;7.43;;;;;;;;;;5016243;28;20050;-62
2023/07/30 02:06:14;;;;;;;15.75;6.53;;;;;;;;;;5023171;28;20504;-62
2023/07/30 02:08:59;;;;;;;18.48;7.45;;;;;;;;;;5024745;28;20524;-63
2023/07/30 02:11:44;;;;;;;19.13;7.15;;;;;;;;;;5017311;28;20054;-61
2023/07/30 02:14:29;;;;;;;18.65;6.90;;;;;;;;;;5018930;28;20041;-61
2023/07/30 02:17:14;;;;;;;31.35;8.07;;;;;;;;;;5013064;28;20399;-61
2023/07/30 02:19:59;;;;;;;19.55;7.38;;;;;;;;;;5006527;28;20038;-61
2023/07/30 02:22:43;;;;;;;20.05;8.63;;;;;;;;;;5009628;28;20042;-61
2023/07/30 02:25:29;;;;;;;22.42;7.28;;;;;;;;;;5014787;28;20049;-62
2023/07/30 02:28:14;;;;;;;18.73;7.03;;;;;;;;;;5021611;28;20535;-61
2023/07/30 02:30:58;;;;;;;21.67;7.47;;;;;;;;;;4999166;28;20076;-61
2023/07/30 02:33:43;;;;;;;23.65;7.07;;;;;;;;;;5017927;28;20052;-61
2023/07/30 02:36:28;;;;;;;26.35;7.97;;;;;;;;;;5017048;28;20034;-61
2023/07/30 02:39:13;;;;;;;16.35;6.90;;;;;;;;;;5022795;28;20041;-62
2023/07/30 02:41:58;;;;;;;16.40;6.90;;;;;;;;;;5022767;28;20124;-61
2023/07/30 02:44:43;;;;;;;18.38;7.30;;;;;;;;;;5019583;28;20037;-61
2023/07/30 02:47:28;;;;;;;17.52;6.80;;;;;;;;;;5001885;28;20049;-61
2023/07/30 02:50:13;;;;;;;17.60;6.45;;;;;;;;;;5021307;28;20364;-61
2023/07/30 02:52:57;;;;;;;16.77;6.55;;;;;;;;;;5018594;28;20137;-61
2023/07/30 02:55:42;;;;;;;15.52;6.53;;;;;;;;;;5020429;28;20076;-62
2023/07/30 02:58:27;;;;;;;18.95;5.57;;;;;;;;;;5022823;28;20053;-61
2023/07/30 03:01:12;;;;;;;14.73;6.45;;;;;;;;;;5020030;28;20042;-61
2023/07/30 03:03:57;;;;;;;18.42;6.13;;;;;;;;;;5020573;28;20589;-61
2023/07/30 03:06:42;;;;;;;18.63;7.35;;;;;;;;;;5021432;28;20116;-62
2023/07/30 03:09:27;;;;;;;14.13;6.45;;;;;;;;;;5024772;28;20041;-62
2023/07/30 03:12:12;;;;;;;15.73;6.07;;;;;;;;;;5012561;28;20050;-61
2023/07/30 03:14:57;;;;;;;16.17;7.00;;;;;;;;;;5019363;28;20042;-61
2023/07/30 03:17:42;;;;;;;22.02;7.03;;;;;;;;;;5012106;28;20061;-61
2023/07/30 03:20:27;;;;;;;14.18;5.93;;;;;;;;;;5017333;28;20224;-61
2023/07/30 03:23:12;;;;;;;20.75;7.82;;;;;;;;;;5019682;28;20077;-61
2023/07/30 03:25:56;;;;;;;19.42;7.45;;;;;;;;;;5018556;28;20041;-62
2023/07/30 03:28:41;;;;;;;20.92;6.55;;;;;;;;;;5018740;28;20042;-61
2023/07/30 03:31:28;;;;;;;20.52;6.57;;;;;;;;;;5020901;28;20068;-61
2023/07/30 03:34:13;;;;;;;12.65;5.80;;;;;;;;;;5021266;28;20061;-61
2023/07/30 03:37:00;;;;;;;16.20;7.18;;;;;;;;;;5017609;28;20057;-63
2023/07/30 03:39:44;;;;;;;15.68;5.43;;;;;;;;;;5010941;28;20041;-63
2023/07/30 03:42:29;;;;;;;14.60;6.43;;;;;;;;;;5020012;28;20073;-62
2023/07/30 03:45:14;;;;;;;16.08;6.00;;;;;;;;;;5027321;28;20046;-62
2023/07/30 03:47:59;;;;;;;9.75;4.70;;;;;;;;;;5012290;28;20046;-62
2023/07/30 03:50:43;;;;;;;15.48;6.32;;;;;;;;;;5021221;28;20439;-62
2023/07/30 03:53:28;;;;;;;18.35;6.80;;;;;;;;;;5015918;28;20053;-62
2023/07/30 03:56:13;;;;;;;11.18;5.65;;;;;;;;;;5022356;28;20487;-61
2023/07/30 03:58:58;;;;;;;15.32;5.90;;;;;;;;;;5021214;28;20041;-62
2023/07/30 04:01:43;;;;;;;12.52;4.57;;;;;;;;;;5019547;28;20378;-63
2023/07/30 04:04:28;;;;;;;11.23;5.38;;;;;;;;;;5017392;28;20038;-62
2023/07/30 04:07:13;;;;;;;25.00;6.65;;;;;;;;;;5015829;28;20363;-63
2023/07/30 04:09:58;;;;;;;19.48;6.72;;;;;;;;;;5024626;28;20048;-62
2023/07/30 04:12:43;;;;;;;15.18;5.32;;;;;;;;;;5018703;28;20045;-62
2023/07/30 04:15:28;;;;;;;13.68;4.45;;;;;;;;;;5016335;28;20085;-62
2023/07/30 04:18:12;;;;;;;17.60;5.90;;;;;;;;;;5021503;28;20041;-62
2023/07/30 04:20:57;;;;;;;19.17;5.30;;;;;;;;;;5013454;28;20046;-62
2023/07/30 04:23:42;;;;;;;16.75;6.25;;;;;;;;;;4999319;28;20053;-62
2023/07/30 04:26:27;;;;;;;13.98;5.80;;;;;;;;;;5025253;28;20088;-62
2023/07/30 04:29:13;;;;;;;14.93;4.65;;;;;;;;;;5017274;28;20149;-62
2023/07/30 04:31:58;;;;;;;13.45;4.10;;;;;;;;;;5022130;28;20052;-62
2023/07/30 04:34:43;;;;;;;11.55;4.13;;;;;;;;;;5013823;28;20863;-61
2023/07/30 04:37:28;;;;;;;20.08;5.38;;;;;;;;;;5013863;28;20045;-61
2023/07/30 04:40:13;;;;;;;11.65;4.22;;;;;;;;;;5015438;28;20046;-62
2023/07/30 04:42:58;;;;;;;10.65;3.83;;;;;;;;;;5019583;28;20053;-62
2023/07/30 04:45:43;;;;;;;10.32;4.43;;;;;;;;;;5017943;28;20042;-61
2023/07/30 04:48:28;;;;;;;7.30;3.00;;;;;;;;;;5016607;28;20627;-61
2023/07/30 04:51:13;;;;;;;7.93;3.40;;;;;;;;;;5007626;28;20078;-61
2023/07/30 04:53:58;;;;;;;10.48;3.67;;;;;;;;;;5019283;28;20108;-62
2023/07/30 04:56:43;;;;;;;11.55;3.78;;;;;;;;;;5022505;28;20136;-62
2023/07/30 04:59:27;;;;;;;9.85;2.90;;;;;;;;;;5018385;28;20042;-62
2023/07/30 05:02:12;;;;;;;15.38;4.13;;;;;;;;;;5008972;28;20618;-61
2023/07/30 05:04:57;;;;;;;8.32;3.03;;;;;;;;;;5018900;28;20096;-62
2023/07/30 05:07:41;;;;;;;9.65;3.13;;;;;;;;;;5025453;28;20145;-62
2023/07/30 05:10:26;;;;;;;10.93;3.83;;;;;;;;;;5025668;28;20996;-62
2023/07/30 05:13:12;;;;;;;9.48;3.15;;;;;;;;;;5017275;28;20579;-62
2023/07/30 05:15:58;;;;;;;6.00;2.65;;;;;;;;;;5002797;28;20049;-62
2023/07/30 05:18:43;;;;;;;6.40;2.65;;;;;;;;;;5020184;28;20045;-62
2023/07/30 05:21:28;;;;;;;9.15;2.97;;;;;;;;;;5022570;28;20117;-62
2023/07/30 05:24:13;;;;;;;20.58;4.18;;;;;;;;;;5021604;28;20045;-62
2023/07/30 05:26:58;;;;;;;7.57;2.97;;;;;;;;;;5022762;28;20076;-62
2023/07/30 05:29:43;;;;;;;12.80;3.85;;;;;;;;;;5022745;28;20136;-63
2023/07/30 05:32:28;;;;;;;7.28;3.45;;;;;;;;;;5015872;28;20072;-62
2023/07/30 05:35:13;;;;;;;12.25;3.22;;;;;;;;;;5011808;28;20526;-60
2023/07/30 05:37:58;;;;;;;7.05;2.03;;;;;;;;;;5019198;28;20045;-62
2023/07/30 05:40:43;;;;;;;8.68;3.60;;;;;;;;;;5023130;28;20076;-62
2023/07/30 05:43:28;;;;;;;14.05;4.30;;;;;;;;;;5020620;28;20444;-62
2023/07/30 05:46:12;;;;;;;5.97;3.35;;;;;;;;;;5030023;28;20049;-63
2023/07/30 05:48:57;;;;;;;8.57;2.85;;;;;;;;;;4993601;28;20110;-62
2023/07/30 05:51:42;;;;;;;12.07;3.13;;;;;;;;;;5007950;28;20103;-63
2023/07/30 05:54:27;;;;;;;8.15;3.20;;;;;;;;;;4994824;28;20205;-62
2023/07/30 05:57:12;;;;;;;8.07;2.67;;;;;;;;;;5024928;28;20038;-62
2023/07/30 05:59:57;;;;;;;12.93;2.53;;;;;;;;;;5021830;28;20071;-62
2023/07/30 06:02:41;;;;;;;7.68;2.88;;;;;;;;;;5021993;28;20038;-62
2023/07/30 06:05:26;;;;;;;13.65;3.40;;;;;;;;;;5015439;28;20125;-62
2023/07/30 06:08:11;;;;;;;7.22;2.78;;;;;;;;;;5004877;28;20049;-62
2023/07/30 06:11:00;;;;;;;7.43;3.03;;;;;;;;;;4999474;28;20489;-63
2023/07/30 06:13:45;;;;;;;10.45;3.00;;;;;;;;;;5018517;28;20741;-62
2023/07/30 06:16:30;;;;;;;11.65;3.78;;;;;;;;;;5021039;28;20073;-62
2023/07/30 06:19:15;;;;;;;9.75;3.67;;;;;;;;;;5008586;28;20355;-62
2023/07/30 06:21:59;;;;;;;10.52;4.03;;;;;;;;;;5014928;28;20134;-62
2023/07/30 06:24:44;;;;;;;9.00;3.42;;;;;;;;;;5020699;28;20058;-62
2023/07/30 06:27:29;;;;;;;8.30;3.17;;;;;;;;;;5007452;28;20148;-62
2023/07/30 06:30:14;;;;;;;11.35;2.95;;;;;;;;;;5018841;28;20079;-62
2023/07/30 06:32:59;;;;;;;9.95;3.55;;;;;;;;;;5005386;28;20554;-62
2023/07/30 06:35:43;;;;;;;20.58;4.13;;;;;;;;;;5024392;28;20045;-62
2023/07/30 06:38:28;;;;;;;9.77;4.15;;;;;;;;;;5030531;28;20045;-63
2023/07/30 06:41:14;;;;;;;7.43;3.13;;;;;;;;;;5007576;28;20049;-62
2023/07/30 06:43:59;;;;;;;27.52;6.13;;;;;;;;;;5019541;28;20045;-62
2023/07/30 06:46:43;;;;;;;9.57;3.17;;;;;;;;;;5001099;28;20049;-61
2023/07/30 06:49:28;;;;;;;11.23;4.57;;;;;;;;;;4993767;28;20052;-60
2023/07/30 06:52:16;;;;;;;8.90;3.58;;;;;;;;;;5018589;28;20508;-60
2023/07/30 06:55:02;;;;;;;10.35;3.47;;;;;;;;;;4998543;28;20069;-60
2023/07/30 06:57:47;;;;;;;9.77;4.20;;;;;;;;;;5011680;28;20128;-61
2023/07/30 07:00:32;;;;;;;12.10;3.33;;;;;;;;;;5020440;28;20033;-61
2023/07/30 07:03:18;;;;;;;9.48;3.47;;;;;;;;;;5016977;28;20052;-61
2023/07/30 07:06:02;;;;;;;8.45;3.00;;;;;;;;;;5015986;28;20751;-60
2023/07/30 07:08:47;;;;;;;9.23;3.45;;;;;;;;;;5020726;28;20077;-60
2023/07/30 07:11:32;;;;;;;13.95;3.63;;;;;;;;;;5017541;28;20042;-60
2023/07/30 07:14:17;;;;;;;13.27;3.67;;;;;;;;;;5019161;28;20093;-59
2023/07/30 07:17:03;;;;;;;15.52;4.35;;;;;;;;;;5015659;28;20103;-59
2023/07/30 07:19:48;;;;;;;9.90;3.05;;;;;;;;;;4999000;28;20045;-61
2023/07/30 07:22:33;;;;;;;8.25;3.50;;;;;;;;;;5014626;28;20056;-61
2023/07/30 07:25:19;;;;;;;9.23;3.28;;;;;;;;;;5018569;28;20041;-61
2023/07/30 07:28:04;;;;;;;7.28;3.53;;;;;;;;;;5014687;28;20552;-61
2023/07/30 07:30:49;;;;;;;9.27;2.80;;;;;;;;;;5009785;28;20074;-61
2023/07/30 07:33:34;;;;;;;10.65;3.65;;;;;;;;;;5016526;28;20046;-61
2023/07/30 07:36:19;;;;;;;7.28;3.17;;;;;;;;;;5010321;28;20574;-60
2023/07/30 07:39:04;;;;;;;10.23;3.35;;;;;;;;;;5017446;28;20132;-62
2023/07/30 07:41:48;;;;;;;8.18;3.13;;;;;;;;;;4999154;28;20048;-61
2023/07/30 07:44:33;;;;;;;6.97;3.08;;;;;;;;;;5014294;28;20084;-59
2023/07/30 07:47:18;;;;;;;8.32;3.20;;;;;;;;;;5025954;28;20052;-60
2023/07/30 07:50:03;;;;;;;12.38;3.92;;;;;;;;;;5019704;28;20064;-60
2023/07/30 07:52:48;;;;;;;15.40;3.63;;;;;;;;;;5018156;28;21036;-59
2023/07/30 07:55:41;;;;;;;11.35;3.75;;;;;;;;;;5324406;23;20054;-60
2023/07/30 07:58:28;;;;;;;15.63;3.63;;;;;;;;;;4977319;28;20078;-60
2023/07/30 08:01:15;;;;;;;10.48;3.78;;;;;;;;;;4973835;28;20421;-62
2023/07/30 08:04:02;;;;;;;9.73;3.47;;;;;;;;;;4971802;28;20447;-60
2023/07/30 08:06:49;;;;;;;10.80;3.60;;;;;;;;;;4976373;28;20113;-60
2023/07/30 08:09:47;;;;;;;9.57;3.85;;;;;;;;;;4974261;28;20153;-63
2023/07/30 08:12:52;;;;;;;9.77;4.22;;;;;;;;;;4975902;28;20194;-61
2023/07/30 08:15:39;;;;;;;8.30;3.40;;;;;;;;;;4980039;28;20050;-60
2023/07/30 08:18:26;;;;;;;8.57;3.20;;;;;;;;;;4980161;28;20231;-60
2023/07/30 08:21:13;;;;;;;6.93;3.42;;;;;;;;;;4981723;28;20043;-60
2023/07/30 08:23:59;;;;;;;14.77;3.72;;;;;;;;;;4980803;28;20053;-61
2023/07/30 08:26:46;;;;;;;11.38;3.45;;;;;;;;;;4971290;28;20078;-60
2023/07/30 08:29:34;;;;;;;9.57;2.80;;;;;;;;;;4976640;28;20140;-60
2023/07/30 08:32:20;;;;;;;9.88;2.95;;;;;;;;;;4985280;28;20050;-60
2023/07/30 08:35:07;;;;;;;9.73;3.60;;;;;;;;;;4989009;28;20066;-60
2023/07/30 08:37:53;;;;;;;16.25;3.67;;;;;;;;;;4987004;28;20586;-60
2023/07/30 08:40:40;;;;;;;11.02;3.85;;;;;;;;;;4981213;28;20034;-61
2023/07/30 08:43:26;;;;;;;5.57;2.42;;;;;;;;;;4984453;28;20054;-61
2023/07/30 08:46:13;;;;;;;8.90;3.38;;;;;;;;;;4985001;28;20489;-61
2023/07/30 08:49:00;;;;;;;9.88;2.92;;;;;;;;;;4985330;28;20088;-61
2023/07/30 08:51:49;;;;;;;6.57;2.00;;;;;;;;;;4986109;28;20517;-61
2023/07/30 08:54:36;;;;;;;3.67;1.88;;;;;;;;;;4988249;28;20038;-61
2023/07/30 08:57:24;;;;;;;5.88;2.63;;;;;;;;;;4987209;28;20073;-61
2023/07/30 09:00:11;;;;;;;6.82;2.72;;;;;;;;;;4968861;28;20050;-61
2023/07/30 09:02:59;;;;;;;10.85;3.35;;;;;;;;;;4989455;28;20141;-61
2023/07/30 09:05:48;;;;;;;6.45;3.17;;;;;;;;;;4991728;28;20046;-61
2023/07/30 09:08:35;;;;;;;5.60;2.80;;;;;;;;;;4973358;28;20045;-60
2023/07/30 09:11:26;;;;;;;7.70;3.17;;;;;;;;;;4989646;28;20113;-61
2023/07/30 09:14:12;;;;;;;17.75;2.78;;;;;;;;;;4988537;28;20377;-61
2023/07/30 09:16:59;;;;;;;9.18;3.20;;;;;;;;;;4985128;28;20692;-61
2023/07/30 09:19:47;;;;;;;5.05;3.03;;;;;;;;;;4985349;28;20057;-61
2023/07/30 09:22:39;;;;;;;8.15;4.15;;;;;;;;;;4984769;28;20042;-61
2023/07/30 09:25:26;;;;;;;6.53;3.58;;;;;;;;;;4989220;28;20116;-61
2023/07/30 09:28:12;;;;;;;7.43;2.50;;;;;;;;;;4988072;28;20052;-61
2023/07/30 09:31:06;;;;;;;10.48;3.03;;;;;;;;;;4988214;28;20046;-61
2023/07/30 09:33:32;;;;;;;9.32;2.72;;;;;;;;;;4983612;28;20450;-62
2023/07/30 09:35:59;;;;;;;8.13;2.83;;;;;;;;;;4989924;28;20057;-61
2023/07/30 09:38:26;;;;;;;7.80;3.13;;;;;;;;;;4973200;28;20038;-61
2023/07/30 09:40:53;;;;;;;15.00;4.30;;;;;;;;;;4983312;28;20548;-61
2023/07/30 09:43:19;;;;;;;10.60;3.03;;;;;;;;;;4981186;28;20038;-61
2023/07/30 09:45:49;;;;;;;9.93;2.35;;;;;;;;;;4988816;28;20046;-61
2023/07/30 09:48:16;;;;;;;6.57;3.22;;;;;;;;;;4973779;28;20107;-61
2023/07/30 09:50:42;;;;;;;6.63;2.92;;;;;;;;;;4969803;28;20450;-61
2023/07/30 09:53:09;;;;;;;10.68;3.95;;;;;;;;;;4988207;28;20162;-61
2023/07/30 09:55:36;;;;;;;4.90;2.58;;;;;;;;;;4979180;28;20408;-61
2023/07/30 09:58:02;;;;;;;21.20;4.28;;;;;;;;;;4989563;28;20520;-61
2023/07/30 10:00:29;;;;;;;8.73;3.08;;;;;;;;;;4972750;28;20041;-61
2023/07/30 10:02:56;;;;;;;10.00;2.70;;;;;;;;;;5002410;28;20116;-60
2023/07/30 10:05:25;;;;;;;11.50;2.72;;;;;;;;;;4967113;28;20046;-61
2023/07/30 10:07:54;;;;;;;11.85;3.20;;;;;;;;;;4989211;28;20440;-61
2023/07/30 10:10:21;;;;;;;8.23;2.72;;;;;;;;;;4986867;28;20046;-60
2023/07/30 10:12:48;;;;;;;9.82;2.85;;;;;;;;;;4970805;28;20447;-62
2023/07/30 10:15:14;;;;;;;8.02;3.33;;;;;;;;;;4988006;28;20096;-60
2023/07/30 10:17:40;;;;;;;7.97;3.15;;;;;;;;;;4992392;28;20034;-60
2023/07/30 10:20:23;;;;;;;8.27;2.75;;;;;;;;;;4985746;28;20050;-62
2023/07/30 10:22:51;;;;;;;9.00;2.50;;;;;;;;;;4988954;28;20054;-61
2023/07/30 10:25:20;;;;;;;8.20;3.03;;;;;;;;;;4989840;28;20047;-65
2023/07/30 10:27:49;;;;;;;8.90;2.97;;;;;;;;;;4969630;28;20043;-61
2023/07/30 10:30:16;;;;;;;8.68;3.55;;;;;;;;;;4985746;28;20085;-60
2023/07/30 10:32:57;;;;;;;7.70;2.83;;;;;;;;;;4985343;28;20049;-60
2023/07/30 10:35:43;;;;;;;11.20;2.83;;;;;;;;;;4988422;28;20038;-60
2023/07/30 10:38:13;;;;;;;5.07;2.40;;;;;;;;;;4988808;28;20042;-61
2023/07/30 10:40:40;;;;;;;7.63;2.35;;;;;;;;;;4989226;28;20101;-61
2023/07/30 10:43:17;;;;;;;6.95;2.70;;;;;;;;;;4989182;28;20053;-61
2023/07/30 10:45:50;;;;;;;9.30;2.83;;;;;;;;;;4958768;28;20493;-61
2023/07/30 10:48:17;;;;;;;8.98;2.97;;;;;;;;;;4984629;28;20112;-61
2023/07/30 10:50:48;;;;;;;10.18;3.22;;;;;;;;;;4989772;28;20053;-61
2023/07/30 10:53:16;;;;;;;7.45;2.90;;;;;;;;;;4989243;28;20053;-61
2023/07/30 10:55:42;;;;;;;7.82;2.85;;;;;;;;;;4984879;28;20052;-61
2023/07/30 10:58:08;;;;;;;9.02;2.50;;;;;;;;;;4966966;28;20042;-61
2023/07/30 11:00:35;;;;;;;13.30;3.08;;;;;;;;;;4986616;28;20583;-61
2023/07/30 11:03:01;;;;;;;7.88;3.22;;;;;;;;;;4970488;28;20050;-61
2023/07/30 11:05:28;;;;;;;8.20;3.20;;;;;;;;;;4990352;28;20042;-61
2023/07/30 11:07:54;;;;;;;7.75;2.90;;;;;;;;;;4987466;28;20040;-61
2023/07/30 11:10:20;;;;;;;6.75;2.80;;;;;;;;;;4990202;28;20050;-60
2023/07/30 11:12:49;;;;;;;7.13;2.72;;;;;;;;;;4972107;28;20122;-61
2023/07/30 11:15:15;;;;;;;6.63;2.88;;;;;;;;;;4985781;28;20267;-61
2023/07/30 11:17:41;;;;;;;8.88;2.50;;;;;;;;;;4941282;28;20038;-61
2023/07/30 11:20:08;;;;;;;11.63;2.70;;;;;;;;;;4986385;28;20046;-60
2023/07/30 11:22:36;;;;;;;6.25;2.83;;;;;;;;;;4985695;28;20038;-60
2023/07/30 11:25:07;;;;;;;5.57;2.50;;;;;;;;;;4985955;28;20120;-60
2023/07/30 11:27:45;;;;;;;9.15;2.30;;;;;;;;;;4989944;28;20038;-62
2023/07/30 11:30:11;;;;;;;4.30;2.20;;;;;;;;;;4981714;28;20061;-59
2023/07/30 11:32:37;;;;;;;5.43;2.50;;;;;;;;;;4986217;28;20035;-60
2023/07/30 11:35:03;;;;;;;4.80;2.13;;;;;;;;;;4993666;28;20408;-61
2023/07/30 11:37:30;;;;;;;7.05;2.38;;;;;;;;;;4996771;28;20040;-60
2023/07/30 11:39:56;;;;;;;8.40;3.22;;;;;;;;;;4986763;28;20034;-60
2023/07/30 11:42:22;;;;;;;7.53;3.08;;;;;;;;;;4972353;28;20053;-61
2023/07/30 11:44:49;;;;;;;5.95;2.28;;;;;;;;;;4990988;28;20572;-61
2023/07/30 11:47:22;;;;;;;10.55;2.70;;;;;;;;;;4986764;28;20030;-61
2023/07/30 11:49:58;;;;;;;4.78;2.40;;;;;;;;;;4981032;28;20120;-62
2023/07/30 11:52:24;;;;;;;5.82;2.40;;;;;;;;;;4997182;28;20111;-61
2023/07/30 11:55:01;;;;;;;5.70;2.55;;;;;;;;;;4993416;28;20124;-60
2023/07/30 11:57:34;;;;;;;10.68;2.22;;;;;;;;;;4981316;28;20404;-60
2023/07/30 12:00:00;;;;;;;7.40;3.08;;;;;;;;;;4994793;28;20075;-60
2023/07/30 12:02:26;;;;;;;11.52;2.60;;;;;;;;;;4987030;28;20042;-61
2023/07/30 12:04:52;;;;;;;6.65;2.63;;;;;;;;;;4986011;28;20053;-60
2023/07/30 12:07:25;;;;;;;7.93;2.63;;;;;;;;;;4985997;28;20035;-60
2023/07/30 12:09:51;;;;;;;5.00;1.77;;;;;;;;;;4986750;28;20053;-60
2023/07/30 12:12:17;;;;;;;6.47;2.25;;;;;;;;;;4975835;28;20802;-61
2023/07/30 12:14:44;;;;;;;8.80;2.10;;;;;;;;;;4982609;28;20694;-61
2023/07/30 12:17:11;;;;;;;7.13;2.15;;;;;;;;;;4987650;28;20057;-61
2023/07/30 12:19:37;;;;;;;7.70;1.92;;;;;;;;;;4985243;28;20117;-61
2023/07/30 12:22:03;;;;;;;10.55;2.30;;;;;;;;;;4985263;28;20500;-60
2023/07/30 12:24:29;;;;;;;6.55;2.15;;;;;;;;;;4953641;28;20046;-59
2023/07/30 12:26:55;;;;;;;10.20;2.65;;;;;;;;;;4984414;28;20034;-60
2023/07/30 12:29:22;;;;;;;6.35;2.17;;;;;;;;;;4991716;28;20058;-60
2023/07/30 12:31:48;;;;;;;4.20;1.63;;;;;;;;;;4970623;28;20175;-60
2023/07/30 12:34:14;;;;;;;5.45;2.20;;;;;;;;;;4987601;28;20061;-61
2023/07/30 12:36:40;;;;;;;8.88;3.10;;;;;;;;;;4999070;28;20045;-61
2023/07/30 12:39:07;;;;;;;7.78;2.47;;;;;;;;;;4985972;28;20096;-60
2023/07/30 12:41:34;;;;;;;8.00;2.53;;;;;;;;;;4984688;28;20284;-60
2023/07/30 12:44:00;;;;;;;7.35;2.45;;;;;;;;;;4984482;28;20070;-60
2023/07/30 12:46:29;;;;;;;11.57;3.08;;;;;;;;;;4986164;28;20050;-61
2023/07/30 12:49:04;;;;;;;6.65;1.95;;;;;;;;;;4975923;28;20034;-61
2023/07/30 12:51:33;;;;;;;9.02;2.10;;;;;;;;;;4984491;28;20046;-60
2023/07/30 12:53:59;;;;;;;7.43;2.13;;;;;;;;;;4985983;28;20165;-60
2023/07/30 12:56:25;;;;;;;5.85;2.47;;;;;;;;;;4990811;28;20129;-61
2023/07/30 12:58:51;;;;;;;4.88;2.58;;;;;;;;;;4969490;28;20441;-61
2023/07/30 13:01:18;;;;;;;7.15;2.88;;;;;;;;;;4986395;28;20050;-61
2023/07/30 13:03:46;;;;;;;4.22;2.45;;;;;;;;;;4988744;28;20042;-61
2023/07/30 13:06:12;;;;;;;5.68;1.60;;;;;;;;;;4991516;28;20084;-60
2023/07/30 13:08:41;;;;;;;2.97;1.67;;;;;;;;;;4986730;28;20355;-61
2023/07/30 13:11:07;;;;;;;6.63;2.03;;;;;;;;;;4985864;28;20046;-61
2023/07/30 13:13:33;;;;;;;9.35;2.13;;;;;;;;;;4982885;28;20035;-61
2023/07/30 13:16:01;;;;;;;6.57;2.10;;;;;;;;;;4987804;28;20112;-61
2023/07/30 13:18:27;;;;;;;6.03;1.98;;;;;;;;;;4988797;28;20042;-61
2023/07/30 13:20:54;;;;;;;11.75;3.40;;;;;;;;;;4994092;28;20093;-61
2023/07/30 13:23:20;;;;;;;6.65;1.98;;;;;;;;;;4989370;28;20079;-61
2023/07/30 13:25:46;;;;;;;6.68;2.47;;;;;;;;;;4957896;28;20124;-61
2023/07/30 13:28:12;;;;;;;5.53;2.00;;;;;;;;;;4991900;28;20054;-61
2023/07/30 13:30:38;;;;;;;7.15;2.42;;;;;;;;;;4972128;28;20042;-61
2023/07/30 13:33:04;;;;;;;10.30;2.90;;;;;;;;;;4983157;28;20076;-61
2023/07/30 13:35:30;;;;;;;4.85;2.22;;;;;;;;;;4971212;28;20046;-60
2023/07/30 13:37:56;;;;;;;4.90;1.90;;;;;;;;;;4982968;28;20057;-60
2023/07/30 13:40:23;;;;;;;6.85;2.30;;;;;;;;;;4988951;28;20045;-61
2023/07/30 13:42:49;;;;;;;10.88;2.95;;;;;;;;;;4987745;28;20057;-61
2023/07/30 13:45:15;;;;;;;7.70;2.15;;;;;;;;;;4968787;28;20046;-61
2023/07/30 13:47:42;;;;;;;11.85;1.95;;;;;;;;;;4992806;28;20038;-60
2023/07/30 13:50:08;;;;;;;6.57;2.78;;;;;;;;;;4987148;28;20059;-62
2023/07/30 13:52:34;;;;;;;4.55;2.50;;;;;;;;;;4988639;28;20109;-60
2023/07/30 13:55:00;;;;;;;11.75;2.17;;;;;;;;;;4986405;28;20588;-61
2023/07/30 13:57:26;;;;;;;12.30;3.33;;;;;;;;;;4990559;28;20445;-61
2023/07/30 13:59:53;;;;;;;4.50;1.83;;;;;;;;;;4984589;28;20069;-61
2023/07/30 14:02:19;;;;;;;10.73;2.92;;;;;;;;;;4987585;28;20038;-61
2023/07/30 14:04:45;;;;;;;7.03;2.70;;;;;;;;;;4993645;28;20065;-60
2023/07/30 14:07:11;;;;;;;4.97;2.08;;;;;;;;;;4991480;28;20046;-61
2023/07/30 14:09:37;;;;;;;7.10;2.72;;;;;;;;;;4995579;28;20119;-60
2023/07/30 14:12:04;;;;;;;7.22;2.10;;;;;;;;;;4992213;28;20046;-60
2023/07/30 14:14:33;;;;;;;4.10;2.05;;;;;;;;;;4985787;28;20050;-60
2023/07/30 14:17:00;;;;;;;5.07;2.22;;;;;;;;;;4971256;28;20050;-61
2023/07/30 14:19:26;;;;;;;7.22;2.10;;;;;;;;;;4993235;28;20049;-60
2023/07/30 14:21:52;;;;;;;5.35;1.95;;;;;;;;;;4985466;28;20447;-60
2023/07/30 14:24:19;;;;;;;6.78;2.70;;;;;;;;;;4985556;28;20046;-60
2023/07/30 14:26:45;;;;;;;5.95;2.05;;;;;;;;;;4988571;28;20113;-60
2023/07/30 14:29:11;;;;;;;4.10;1.67;;;;;;;;;;4984333;28;20136;-60
2023/07/30 14:31:37;;;;;;;4.03;1.75;;;;;;;;;;4985266;28;20057;-60
2023/07/30 14:34:03;;;;;;;10.07;2.38;;;;;;;;;;4988817;28;20122;-61
2023/07/30 14:36:30;;;;;;;5.57;2.13;;;;;;;;;;4985891;28;20050;-61
2023/07/30 14:38:56;;;;;;;4.28;2.35;;;;;;;;;;4987387;28;20042;-61
2023/07/30 14:41:22;;;;;;;9.88;2.97;;;;;;;;;;4990868;28;20038;-59
2023/07/30 14:43:48;;;;;;;6.28;1.90;;;;;;;;;;4986063;28;20110;-61
2023/07/30 14:46:15;;;;;;;4.03;1.70;;;;;;;;;;4987599;28;20038;-60
2023/07/30 14:48:42;;;;;;;9.18;2.67;;;;;;;;;;4986275;28;20177;-60
2023/07/30 14:51:08;;;;;;;11.50;2.35;;;;;;;;;;4968026;28;20494;-61
2023/07/30 14:53:34;;;;;;;5.55;2.35;;;;;;;;;;4970452;28;20038;-61
2023/07/30 14:56:01;;;;;;;5.32;1.77;;;;;;;;;;4965726;28;20548;-61
2023/07/30 14:58:27;;;;;;;5.05;1.40;;;;;;;;;;4967578;28;20077;-59
2023/07/30 15:00:53;;;;;;;4.55;1.88;;;;;;;;;;4984883;28;20868;-60
2023/07/30 15:03:19;;;;;;;4.88;1.80;;;;;;;;;;4985759;28;20054;-60
2023/07/30 15:05:45;;;;;;;6.07;2.33;;;;;;;;;;4985165;28;20057;-62
2023/07/30 15:08:11;;;;;;;6.03;2.40;;;;;;;;;;4986061;28;20093;-59
2023/07/30 15:10:38;;;;;;;5.55;2.35;;;;;;;;;;4986195;28;20110;-61
2023/07/30 15:13:04;;;;;;;4.43;2.25;;;;;;;;;;4985851;28;20101;-61
2023/07/30 15:15:30;;;;;;;4.30;1.70;;;;;;;;;;4986242;28;20052;-61
2023/07/30 15:17:56;;;;;;;1.45;0.93;;;;;;;;;;4986911;28;20069;-61
2023/07/30 15:20:22;;;;;;;3.47;1.70;;;;;;;;;;4980171;28;20123;-60
2023/07/30 15:22:48;;;;;;;3.47;0.98;;;;;;;;;;4968590;28;20492;-60
2023/07/30 15:25:14;;;;;;;2.42;1.35;;;;;;;;;;4988369;28;20057;-61
2023/07/30 15:27:41;;;;;;;5.70;1.67;;;;;;;;;;4990009;28;20481;-61
2023/07/30 15:30:07;;;;;;;3.30;1.25;;;;;;;;;;4985938;28;20046;-60
2023/07/30 15:32:40;;;;;;;4.45;1.42;;;;;;;;;;4987005;28;20046;-61
2023/07/30 15:35:07;;;;;;;3.90;1.65;;;;;;;;;;4986601;28;20053;-61
2023/07/30 15:37:33;;;;;;;5.72;2.10;;;;;;;;;;4936487;28;20066;-61
2023/07/30 15:39:59;;;;;;;4.78;1.90;;;;;;;;;;4990206;28;20413;-61